Decoded Metar for KNKT (CHERRY POINT in NC, USA) (IATA:NKT) | Meteo·Mobile Aviation Weather
aviador You're here:

KNKT Decoded Metar

CHERRY POINT in NC, USA
Report Time2019-01-16 16:54:00
UTC Time2019-01-16 17:57:48
Flight Rules vfr VFR
Wind240° at 10 Gusting to 18 kt
W.Decomp.*RWY 23: 9.5 kt HW 3.3 kt RCW
RWY 32: 3.3 kt HW 9.5 kt LCW
W.Rank240° ranks 14
Current wind is above 240° avg. (7.8)
Visibility9999 m
Phenomena:N/A
Clouds:N/A
Expected CloudBase > 3,200 ft AGL from Temp-Dew spread
CeilingNone
Temp11°C (ISA -4)
Dew Point03°C (58% RH)
AAT5.9°C
QNH1023 hPa
Density Alt-673 ft
Elevation30 ft
Report Wrong Elevation
Raw Report
KNKT 161654Z 24010G18KT 220V280 10SM CLR 11/03 A3021 RMK AO2
SLP228 T01110033=

Extra information for KNKT:More info

Metar Taf Metar & Taf Last 4 Metars F.Rules Stats Wind Profile Meteogram Temp Stats Airport Information Weather charts Add Link Nearby VenuesMetar ALERT Operation Metar Decoded Social comments

AIRNAV info for KNKT